createdAt,value
2022-07-25T00:00:56.764Z,11.65
2022-07-25T00:03:23.161Z,6.65
2022-07-25T00:05:49.608Z,7.53
2022-07-25T00:08:16.134Z,9.45
2022-07-25T00:10:42.500Z,11.82
2022-07-25T00:13:08.925Z,15.07
2022-07-25T00:15:35.380Z,9.32
2022-07-25T00:18:01.926Z,10.23
2022-07-25T00:20:28.299Z,11.70
2022-07-25T00:22:54.679Z,9.68
2022-07-25T00:25:23.653Z,7.88
2022-07-25T00:27:50.038Z,8.60
2022-07-25T00:30:16.362Z,11.43
2022-07-25T00:32:42.775Z,9.57
2022-07-25T00:35:09.262Z,9.50
2022-07-25T00:37:35.652Z,9.75
2022-07-25T00:40:02.084Z,12.00
2022-07-25T00:42:28.593Z,9.18
2022-07-25T00:44:54.988Z,7.72
2022-07-25T00:47:21.373Z,8.45
2022-07-25T00:49:47.783Z,8.80
2022-07-25T00:52:14.464Z,10.95
2022-07-25T00:54:41.036Z,12.45
2022-07-25T00:57:07.531Z,8.07
2022-07-25T00:59:33.914Z,8.65
2022-07-25T01:02:00.425Z,8.48
2022-07-25T01:04:30.452Z,8.48
2022-07-25T01:06:56.904Z,9.90
2022-07-25T01:09:23.392Z,9.65
2022-07-25T01:11:49.811Z,8.45
2022-07-25T01:14:16.175Z,10.35
2022-07-25T01:16:42.559Z,9.75
2022-07-25T01:19:08.970Z,11.38
2022-07-25T01:21:40.027Z,9.60
2022-07-25T01:24:06.923Z,8.25
2022-07-25T01:26:33.483Z,11.93
2022-07-25T01:29:00.066Z,13.65
2022-07-25T01:31:26.636Z,9.77
2022-07-25T01:33:53.111Z,9.10
2022-07-25T01:36:19.480Z,9.68
2022-07-25T01:38:45.853Z,12.18
2022-07-25T01:41:12.441Z,10.60
2022-07-25T01:44:09.756Z,11.57
2022-07-25T01:46:36.490Z,9.75
2022-07-25T01:49:04.660Z,10.18
2022-07-25T01:51:31.135Z,11.57
2022-07-25T01:53:57.533Z,9.40
2022-07-25T01:56:23.941Z,9.13
2022-07-25T01:58:50.416Z,10.38
2022-07-25T02:01:16.867Z,10.05
2022-07-25T02:03:45.747Z,9.75
2022-07-25T02:06:12.194Z,9.05
2022-07-25T02:08:38.568Z,10.05
2022-07-25T02:11:05.221Z,12.80
2022-07-25T02:13:31.663Z,10.95
2022-07-25T02:15:58.106Z,9.70
2022-07-25T02:18:24.557Z,10.40
2022-07-25T02:20:51.046Z,9.27
2022-07-25T02:23:17.480Z,11.23
2022-07-25T02:25:43.804Z,9.15
2022-07-25T02:28:10.692Z,10.30
2022-07-25T02:30:37.549Z,9.88
2022-07-25T02:33:04.006Z,11.30
2022-07-25T02:35:30.591Z,10.20
2022-07-25T02:37:56.951Z,11.88
2022-07-25T02:40:23.308Z,13.07
2022-07-25T02:42:49.691Z,14.07
2022-07-25T02:45:16.089Z,12.07
2022-07-25T02:47:42.485Z,10.07
2022-07-25T02:50:09.239Z,9.32
2022-07-25T02:52:41.253Z,13.35
2022-07-25T02:55:09.838Z,10.27
2022-07-25T02:57:36.392Z,10.30
2022-07-25T03:00:03.673Z,10.18
2022-07-25T03:02:30.078Z,11.00
2022-07-25T03:04:56.460Z,13.13
2022-07-25T03:07:22.837Z,10.68
2022-07-25T03:09:49.288Z,10.63
2022-07-25T03:12:15.697Z,12.30
2022-07-25T03:14:42.132Z,10.98
2022-07-25T03:17:08.610Z,12.95
2022-07-25T03:19:35.061Z,9.65
2022-07-25T03:22:01.420Z,9.95
2022-07-25T03:24:27.788Z,12.93
2022-07-25T03:26:55.084Z,19.70
2022-07-25T03:29:21.485Z,11.40
2022-07-25T03:31:47.876Z,11.07
2022-07-25T03:34:14.301Z,12.02
2022-07-25T03:36:40.694Z,11.05
2022-07-25T03:39:07.064Z,11.02
2022-07-25T03:41:33.502Z,12.45
2022-07-25T03:43:59.866Z,11.63
2022-07-25T03:46:26.297Z,14.00
2022-07-25T03:48:52.823Z,11.52
2022-07-25T03:51:19.209Z,15.27
2022-07-25T03:54:04.315Z,12.85
2022-07-25T03:56:31.954Z,9.90
2022-07-25T03:58:58.410Z,17.15
2022-07-25T04:01:24.949Z,12.68
2022-07-25T04:03:53.276Z,11.57
2022-07-25T04:06:19.742Z,11.27
2022-07-25T04:08:46.354Z,10.70
2022-07-25T04:11:12.721Z,13.02
2022-07-25T04:13:39.113Z,12.70
2022-07-25T04:16:05.689Z,14.05
2022-07-25T04:18:32.262Z,11.98
2022-07-25T04:21:00.892Z,10.68
2022-07-25T04:23:28.617Z,13.07
2022-07-25T04:25:55.571Z,12.45
2022-07-25T04:28:22.013Z,14.32
2022-07-25T04:30:48.618Z,10.88
2022-07-25T04:33:15.504Z,13.57
2022-07-25T04:35:41.893Z,12.60
2022-07-25T04:38:12.017Z,11.00
2022-07-25T04:40:39.051Z,10.98
2022-07-25T04:43:05.622Z,12.52
2022-07-25T04:45:32.429Z,12.38
2022-07-25T04:47:58.976Z,11.10
2022-07-25T04:50:25.381Z,10.18
2022-07-25T04:52:51.834Z,12.63
2022-07-25T04:55:18.368Z,14.93
2022-07-25T04:57:44.870Z,15.20
2022-07-25T05:00:11.669Z,13.40
2022-07-25T05:02:38.168Z,15.70
2022-07-25T05:05:05.402Z,10.43
2022-07-25T05:07:32.010Z,15.23
2022-07-25T05:09:58.422Z,12.20
2022-07-25T05:12:24.764Z,12.27
2022-07-25T05:14:51.131Z,16.30
2022-07-25T05:17:17.647Z,11.32
2022-07-25T05:19:44.026Z,11.85
2022-07-25T05:22:10.360Z,13.27
2022-07-25T05:24:37.150Z,9.50
2022-07-25T05:27:04.329Z,13.52
2022-07-25T05:29:31.347Z,14.20
2022-07-25T05:31:58.276Z,12.40
2022-07-25T05:34:24.818Z,12.75
2022-07-25T05:36:51.158Z,13.35
2022-07-25T05:39:17.531Z,10.38
2022-07-25T05:41:44.110Z,11.32
2022-07-25T05:44:10.770Z,11.57
2022-07-25T05:46:37.291Z,16.45
2022-07-25T05:49:03.766Z,15.63
2022-07-25T05:51:30.239Z,9.60
2022-07-25T05:53:56.580Z,12.77
2022-07-25T05:56:23.172Z,9.77
2022-07-25T05:58:49.592Z,13.15
2022-07-25T06:01:16.115Z,9.75
2022-07-25T06:03:42.536Z,11.55
2022-07-25T06:06:09.108Z,11.45
2022-07-25T06:08:35.877Z,9.30
2022-07-25T06:11:07.454Z,10.95
2022-07-25T06:13:34.750Z,15.18
2022-07-25T06:16:01.440Z,9.63
2022-07-25T06:18:28.142Z,11.52
2022-07-25T06:20:54.488Z,9.73
2022-07-25T06:23:21.082Z,10.13
2022-07-25T06:25:50.315Z,9.35
2022-07-25T06:28:18.314Z,14.02
2022-07-25T06:30:45.180Z,9.45
2022-07-25T06:33:11.813Z,14.93
2022-07-25T06:35:38.407Z,12.10
2022-07-25T06:38:04.890Z,11.30
2022-07-25T06:40:31.516Z,10.57
2022-07-25T06:42:57.939Z,11.30
2022-07-25T06:45:25.387Z,8.85
2022-07-25T06:47:51.922Z,10.65
2022-07-25T06:50:18.811Z,10.50
2022-07-25T06:52:47.872Z,10.32
2022-07-25T06:55:15.261Z,10.05
2022-07-25T06:57:42.514Z,14.60
2022-07-25T07:00:10.567Z,8.38
2022-07-25T07:02:56.223Z,8.98
2022-07-25T07:05:23.742Z,8.88
2022-07-25T07:07:50.106Z,8.20
2022-07-25T07:10:18.060Z,9.18
2022-07-25T07:12:44.539Z,9.38
2022-07-25T07:15:11.594Z,9.35
2022-07-25T07:17:38.068Z,7.85
2022-07-25T07:20:05.232Z,8.90
2022-07-25T07:22:31.697Z,7.45
2022-07-25T07:24:58.921Z,8.05
2022-07-25T07:27:25.348Z,10.50
2022-07-25T07:29:51.720Z,7.85
2022-07-25T07:32:18.226Z,9.93
2022-07-25T07:34:44.622Z,5.78
2022-07-25T07:37:11.098Z,8.05
2022-07-25T07:39:37.508Z,7.35
2022-07-25T07:42:03.987Z,10.50
2022-07-25T07:44:30.398Z,8.98
2022-07-25T07:46:56.782Z,7.28
2022-07-25T07:49:23.417Z,8.35
2022-07-25T07:51:49.808Z,8.43
2022-07-25T07:54:34.672Z,6.85
2022-07-25T07:57:01.077Z,9.63
2022-07-25T07:59:27.404Z,8.15
2022-07-25T08:01:53.898Z,9.02
2022-07-25T08:04:20.338Z,9.20
2022-07-25T08:06:46.698Z,6.25
2022-07-25T08:09:13.054Z,7.35
2022-07-25T08:11:39.787Z,8.80
2022-07-25T08:14:07.411Z,13.52
2022-07-25T08:16:34.198Z,11.13
2022-07-25T08:19:00.690Z,7.82
2022-07-25T08:21:27.108Z,8.13
2022-07-25T08:23:53.447Z,7.72
2022-07-25T08:26:19.902Z,10.18
2022-07-25T08:28:46.584Z,8.07
2022-07-25T08:31:13.646Z,6.40
2022-07-25T08:33:42.901Z,7.32
2022-07-25T08:36:10.942Z,9.70
2022-07-25T08:38:37.351Z,6.32
2022-07-25T08:41:04.051Z,6.72
2022-07-25T08:43:33.142Z,8.27
2022-07-25T08:46:00.318Z,7.25
2022-07-25T08:48:26.991Z,6.47
2022-07-25T08:50:54.544Z,9.50
2022-07-25T08:53:36.875Z,11.77
2022-07-25T08:56:11.178Z,9.88
2022-07-25T08:58:40.043Z,8.85
2022-07-25T09:01:07.083Z,5.95
2022-07-25T09:03:33.597Z,6.63
2022-07-25T09:06:00.672Z,6.13
2022-07-25T09:08:27.041Z,7.10
2022-07-25T09:10:53.625Z,7.75
2022-07-25T09:13:22.100Z,7.97
2022-07-25T09:15:50.072Z,7.60
2022-07-25T09:18:17.567Z,6.30
2022-07-25T09:20:45.040Z,7.28
2022-07-25T09:23:13.075Z,5.95
2022-07-25T09:25:39.764Z,6.38
2022-07-25T09:28:10.089Z,16.73
2022-07-25T09:30:36.484Z,6.88
2022-07-25T09:33:02.841Z,9.82
2022-07-25T09:35:33.621Z,10.18
2022-07-25T09:38:14.227Z,10.73
2022-07-25T09:40:41.647Z,6.38
2022-07-25T09:43:08.439Z,8.07
2022-07-25T09:45:34.890Z,5.97
2022-07-25T09:48:02.312Z,8.50
2022-07-25T09:50:29.567Z,10.18
2022-07-25T09:52:57.126Z,5.75
2022-07-25T09:55:23.790Z,6.50
2022-07-25T09:57:50.736Z,6.28
2022-07-25T10:00:23.488Z,9.00
2022-07-25T10:02:53.106Z,6.18
2022-07-25T10:05:19.517Z,7.75
2022-07-25T10:07:47.094Z,7.47
2022-07-25T10:10:28.825Z,10.25
2022-07-25T10:12:59.925Z,6.63
2022-07-25T10:15:26.384Z,5.30
2022-07-25T10:18:02.194Z,6.93
2022-07-25T10:20:28.799Z,5.55
2022-07-25T10:22:57.158Z,11.75
2022-07-25T10:25:24.077Z,5.75
2022-07-25T10:27:52.976Z,6.93
2022-07-25T10:30:20.876Z,6.47
2022-07-25T10:32:51.513Z,5.35
2022-07-25T10:35:17.955Z,6.43
2022-07-25T10:37:49.005Z,5.65
2022-07-25T10:40:25.276Z,7.80
2022-07-25T10:42:56.095Z,6.30
2022-07-25T10:45:25.999Z,8.00
2022-07-25T10:47:55.947Z,5.95
2022-07-25T10:50:40.383Z,5.97
2022-07-25T10:53:09.872Z,5.20
2022-07-25T10:55:36.888Z,6.40
2022-07-25T10:58:21.633Z,8.65
2022-07-25T11:00:48.100Z,8.23
2022-07-25T11:03:18.364Z,6.57
2022-07-25T11:05:46.567Z,6.25
2022-07-25T11:08:21.777Z,8.10
2022-07-25T11:10:53.149Z,5.70
2022-07-25T11:13:19.577Z,9.07
2022-07-25T11:15:46.713Z,9.55
2022-07-25T11:18:13.110Z,5.97
2022-07-25T11:20:39.627Z,6.03
2022-07-25T11:23:06.688Z,5.10
2022-07-25T11:25:33.043Z,5.20
2022-07-25T11:28:00.297Z,5.60
2022-07-25T11:30:30.818Z,7.00
2022-07-25T11:32:58.140Z,10.05
2022-07-25T11:35:31.765Z,5.82
2022-07-25T11:38:01.681Z,5.18
2022-07-25T11:40:28.493Z,5.53
2022-07-25T11:42:59.331Z,6.13
2022-07-25T11:45:27.019Z,5.05
2022-07-25T11:48:06.737Z,11.73
2022-07-25T11:50:33.962Z,5.88
2022-07-25T11:53:04.362Z,6.07
2022-07-25T11:55:32.619Z,6.13
2022-07-25T11:58:03.195Z,11.50
2022-07-25T12:00:29.831Z,5.15
2022-07-25T12:03:06.097Z,5.57
2022-07-25T12:05:32.912Z,7.75
2022-07-25T12:08:08.103Z,8.48
2022-07-25T12:10:35.427Z,7.97
2022-07-25T12:13:04.089Z,6.35
2022-07-25T12:15:32.153Z,6.38
2022-07-25T12:17:58.970Z,6.97
2022-07-25T12:20:26.980Z,7.88
2022-07-25T12:22:54.779Z,12.70
2022-07-25T12:25:21.238Z,7.10
2022-07-25T12:27:48.116Z,9.60
2022-07-25T12:30:15.018Z,14.93
2022-07-25T12:32:41.737Z,4.75
2022-07-25T12:35:09.399Z,7.43
2022-07-25T12:37:35.879Z,10.18
2022-07-25T12:40:02.308Z,6.45
2022-07-25T12:42:28.910Z,5.85
2022-07-25T12:44:55.905Z,10.70
2022-07-25T12:47:22.851Z,7.57
2022-07-25T12:49:49.229Z,5.32
2022-07-25T12:52:15.624Z,9.40
2022-07-25T12:54:42.184Z,5.72
2022-07-25T12:57:09.944Z,5.20
2022-07-25T12:59:36.306Z,5.60
2022-07-25T13:02:02.847Z,6.35
2022-07-25T13:04:29.673Z,4.50
2022-07-25T13:06:56.559Z,5.07
2022-07-25T13:09:23.093Z,9.75
2022-07-25T13:11:49.495Z,5.13
2022-07-25T13:14:16.231Z,6.07
2022-07-25T13:16:43.381Z,6.60
2022-07-25T13:19:10.240Z,5.90
2022-07-25T13:21:37.452Z,5.00
2022-07-25T13:24:04.188Z,5.38
2022-07-25T13:26:31.028Z,5.03
2022-07-25T13:29:00.067Z,10.07
2022-07-25T13:31:26.795Z,6.22
2022-07-25T13:33:53.214Z,4.28
2022-07-25T13:36:19.764Z,5.43
2022-07-25T13:38:46.840Z,5.88
2022-07-25T13:41:13.862Z,5.97
2022-07-25T13:43:42.926Z,6.78
2022-07-25T13:46:09.800Z,5.70
2022-07-25T13:48:37.044Z,10.43
2022-07-25T13:51:03.689Z,5.00
2022-07-25T13:53:30.773Z,7.68
2022-07-25T13:55:58.276Z,8.65
2022-07-25T13:58:25.035Z,6.90
2022-07-25T14:00:51.772Z,5.20
2022-07-25T14:03:18.216Z,6.28
2022-07-25T14:05:44.569Z,7.65
2022-07-25T14:08:10.974Z,8.27
2022-07-25T14:10:37.385Z,6.78
2022-07-25T14:13:03.921Z,8.48
2022-07-25T14:15:30.322Z,5.85
2022-07-25T14:17:57.162Z,6.28
2022-07-25T14:20:23.628Z,8.27
2022-07-25T14:22:50.060Z,4.82
2022-07-25T14:25:16.477Z,7.10
2022-07-25T14:27:42.876Z,8.73
2022-07-25T14:30:09.674Z,5.78
2022-07-25T14:32:36.536Z,4.95
2022-07-25T14:35:03.449Z,5.07
2022-07-25T14:37:31.431Z,6.82
2022-07-25T14:40:01.099Z,7.13
2022-07-25T14:42:28.321Z,6.95
2022-07-25T14:44:54.820Z,5.45
2022-07-25T14:47:26.778Z,4.50
2022-07-25T14:49:54.060Z,7.22
2022-07-25T14:52:20.465Z,4.97
2022-07-25T14:54:47.032Z,5.85
2022-07-25T14:57:13.558Z,5.95
2022-07-25T14:59:39.908Z,5.95
2022-07-25T15:02:06.368Z,8.18
2022-07-25T15:04:32.996Z,9.93
2022-07-25T15:06:59.912Z,13.10
2022-07-25T15:09:26.304Z,8.88
2022-07-25T15:11:52.651Z,15.93
2022-07-25T15:14:19.243Z,6.60
2022-07-25T15:16:45.682Z,5.68
2022-07-25T15:19:17.124Z,4.82
2022-07-25T15:21:44.196Z,8.23
2022-07-25T15:24:10.547Z,7.40
2022-07-25T15:26:36.982Z,4.85
2022-07-25T15:29:06.093Z,7.35
2022-07-25T15:31:32.922Z,9.30
2022-07-25T15:33:59.356Z,7.65
2022-07-25T15:36:29.276Z,7.45
2022-07-25T15:38:56.151Z,8.02
2022-07-25T15:41:22.485Z,5.20
2022-07-25T15:43:48.843Z,4.78
2022-07-25T15:46:16.300Z,5.25
2022-07-25T15:48:44.417Z,4.57
2022-07-25T15:51:10.922Z,7.75
2022-07-25T15:53:37.352Z,7.95
2022-07-25T15:56:04.446Z,13.10
2022-07-25T15:58:30.897Z,11.70
2022-07-25T16:00:57.375Z,10.20
2022-07-25T16:03:24.109Z,9.32
2022-07-25T16:05:50.591Z,11.55
2022-07-25T16:08:17.076Z,8.25
2022-07-25T16:10:43.549Z,7.68
2022-07-25T16:13:10.105Z,8.98
2022-07-25T16:15:36.504Z,9.95
2022-07-25T16:18:03.362Z,5.25
2022-07-25T16:20:31.686Z,9.25
2022-07-25T16:22:59.107Z,12.15
2022-07-25T16:25:26.417Z,12.85
2022-07-25T16:27:53.317Z,28.52
2022-07-25T16:30:20.299Z,12.18
2022-07-25T16:32:46.942Z,15.73
2022-07-25T16:35:15.937Z,12.20
2022-07-25T16:37:42.633Z,10.15
2022-07-25T16:40:09.721Z,12.38
2022-07-25T16:42:36.517Z,19.05
2022-07-25T16:45:02.952Z,10.13
2022-07-25T16:47:29.368Z,15.10
2022-07-25T16:49:55.957Z,15.90
2022-07-25T16:52:22.869Z,13.35
2022-07-25T16:54:49.674Z,25.83
2022-07-25T16:57:16.080Z,8.70
2022-07-25T16:59:42.640Z,12.40
2022-07-25T17:02:09.129Z,14.48
2022-07-25T17:04:35.965Z,12.10
2022-07-25T17:07:02.494Z,9.30
2022-07-25T17:09:28.978Z,9.25
2022-07-25T17:11:55.324Z,6.65
2022-07-25T17:14:24.044Z,10.10
2022-07-25T17:16:54.212Z,11.52
2022-07-25T17:19:20.602Z,8.80
2022-07-25T17:21:46.997Z,21.75
2022-07-25T17:24:13.855Z,23.75
2022-07-25T17:26:40.296Z,24.13
2022-07-25T17:29:08.169Z,16.70
2022-07-25T17:31:35.048Z,23.25
2022-07-25T17:34:01.774Z,12.45
2022-07-25T17:36:28.203Z,14.63
2022-07-25T17:38:54.631Z,16.08
2022-07-25T17:41:20.966Z,15.20
2022-07-25T17:43:47.605Z,17.55
2022-07-25T17:46:14.103Z,19.02
2022-07-25T17:48:41.266Z,15.32
2022-07-25T17:51:07.828Z,12.80
2022-07-25T17:53:34.193Z,17.75
2022-07-25T17:56:01.657Z,19.38
2022-07-25T17:58:28.138Z,14.10
2022-07-25T18:00:59.555Z,16.48
2022-07-25T18:03:27.629Z,18.50
2022-07-25T18:05:55.306Z,23.15
2022-07-25T18:08:22.087Z,16.67
2022-07-25T18:10:49.907Z,15.68
2022-07-25T18:13:17.789Z,22.90
2022-07-25T18:15:44.900Z,15.80
2022-07-25T18:18:12.831Z,16.65
2022-07-25T18:20:43.878Z,19.02
2022-07-25T18:23:10.379Z,15.18
2022-07-25T18:25:36.940Z,13.68
2022-07-25T18:28:03.363Z,19.40
2022-07-25T18:30:29.945Z,12.48
2022-07-25T18:32:56.641Z,18.50
2022-07-25T18:35:23.000Z,9.65
2022-07-25T18:37:49.691Z,15.25
2022-07-25T18:40:16.528Z,15.68
2022-07-25T18:42:42.898Z,15.25
2022-07-25T18:45:10.288Z,17.00
2022-07-25T18:47:36.686Z,11.48
2022-07-25T18:50:05.365Z,18.80
2022-07-25T18:52:35.058Z,12.38
2022-07-25T18:55:02.202Z,21.30
2022-07-25T18:57:31.568Z,17.63
2022-07-25T19:00:02.446Z,17.67
2022-07-25T19:02:29.656Z,19.75
2022-07-25T19:04:56.085Z,15.30
2022-07-25T19:07:22.541Z,15.50
2022-07-25T19:09:49.152Z,16.42
2022-07-25T19:12:15.521Z,16.58
2022-07-25T19:14:41.904Z,18.95
2022-07-25T19:17:08.364Z,14.18
2022-07-25T19:19:34.774Z,23.02
2022-07-25T19:22:01.293Z,20.83
2022-07-25T19:24:27.664Z,16.02
2022-07-25T19:26:54.119Z,21.75
2022-07-25T19:29:20.980Z,19.17
2022-07-25T19:31:47.440Z,27.92
2022-07-25T19:34:13.899Z,17.50
2022-07-25T19:36:40.278Z,18.20
2022-07-25T19:39:06.787Z,14.90
2022-07-25T19:41:33.373Z,16.27
2022-07-25T19:43:59.780Z,21.33
2022-07-25T19:46:29.655Z,18.80
2022-07-25T19:48:56.383Z,16.42
2022-07-25T19:51:22.771Z,22.27
2022-07-25T19:53:49.135Z,19.85
2022-07-25T19:56:15.516Z,19.08
2022-07-25T19:58:43.459Z,16.90
2022-07-25T20:01:10.118Z,16.73
2022-07-25T20:03:36.558Z,13.68
2022-07-25T20:06:07.808Z,14.13
2022-07-25T20:08:34.906Z,20.55
2022-07-25T20:11:01.567Z,17.23
2022-07-25T20:13:29.339Z,15.40
2022-07-25T20:15:55.673Z,15.45
2022-07-25T20:18:22.119Z,15.07
2022-07-25T20:20:48.528Z,13.63
2022-07-25T20:23:14.893Z,16.95
2022-07-25T20:25:41.348Z,15.57
2022-07-25T20:28:07.708Z,16.67
2022-07-25T20:30:35.064Z,16.35
2022-07-25T20:33:08.180Z,13.15
2022-07-25T20:35:35.975Z,14.90
2022-07-25T20:38:02.342Z,13.48
2022-07-25T20:40:29.232Z,15.25
2022-07-25T20:42:56.208Z,12.57
2022-07-25T20:45:22.858Z,17.63
2022-07-25T20:47:49.299Z,12.93
2022-07-25T20:50:15.688Z,11.23
2022-07-25T20:52:42.334Z,16.05
2022-07-25T20:55:08.995Z,13.35
2022-07-25T20:57:35.425Z,12.55
2022-07-25T21:00:02.229Z,12.45
2022-07-25T21:02:28.637Z,11.10
2022-07-25T21:04:55.109Z,14.55
2022-07-25T21:07:21.496Z,10.73
2022-07-25T21:09:47.896Z,13.57
2022-07-25T21:12:14.319Z,10.45
2022-07-25T21:14:40.682Z,12.43
2022-07-25T21:17:08.004Z,11.77
2022-07-25T21:19:34.466Z,11.73
2022-07-25T21:22:01.792Z,11.50
2022-07-25T21:24:28.295Z,14.82
2022-07-25T21:26:54.650Z,14.15
2022-07-25T21:29:21.066Z,12.43
2022-07-25T21:31:47.879Z,17.42
2022-07-25T21:34:17.034Z,14.85
2022-07-25T21:36:43.547Z,11.25
2022-07-25T21:39:10.306Z,11.38
2022-07-25T21:41:37.059Z,13.65
2022-07-25T21:44:03.558Z,11.05
2022-07-25T21:46:30.066Z,14.95
2022-07-25T21:49:15.270Z,13.82
2022-07-25T21:51:42.145Z,12.00
2022-07-25T21:54:09.542Z,11.93
2022-07-25T21:56:35.937Z,11.23
2022-07-25T21:59:02.297Z,14.82
2022-07-25T22:01:29.233Z,9.27
2022-07-25T22:03:55.718Z,14.13
2022-07-25T22:06:22.175Z,13.77
2022-07-25T22:08:48.564Z,15.27
2022-07-25T22:11:20.867Z,14.30
2022-07-25T22:14:01.603Z,13.80
2022-07-25T22:16:28.140Z,15.32
2022-07-25T22:18:54.532Z,18.85
2022-07-25T22:21:20.934Z,13.07
2022-07-25T22:23:47.388Z,15.30
2022-07-25T22:26:13.754Z,17.42
2022-07-25T22:28:40.166Z,14.98
2022-07-25T22:31:06.976Z,16.80
2022-07-25T22:33:34.836Z,14.20
2022-07-25T22:36:01.412Z,18.23
2022-07-25T22:38:27.842Z,16.25
2022-07-25T22:40:54.200Z,14.43
2022-07-25T22:43:20.608Z,15.27
2022-07-25T22:45:47.142Z,14.55
2022-07-25T22:48:13.721Z,17.85
2022-07-25T22:50:40.075Z,15.52
2022-07-25T22:53:06.669Z,16.77
2022-07-25T22:55:33.005Z,18.00
2022-07-25T22:57:59.353Z,19.27
2022-07-25T23:00:25.793Z,17.90
2022-07-25T23:02:52.260Z,19.23
2022-07-25T23:05:18.910Z,17.55
2022-07-25T23:07:45.288Z,18.23
2022-07-25T23:10:12.172Z,19.67
2022-07-25T23:12:38.668Z,18.58
2022-07-25T23:15:05.354Z,19.27
2022-07-25T23:17:31.696Z,23.35
2022-07-25T23:19:58.124Z,19.95
2022-07-25T23:22:26.169Z,16.45
2022-07-25T23:24:52.651Z,19.67
2022-07-25T23:27:19.016Z,19.67
2022-07-25T23:29:45.420Z,20.17
2022-07-25T23:32:11.795Z,18.65
2022-07-25T23:34:38.267Z,23.60
2022-07-25T23:37:04.800Z,24.85
2022-07-25T23:39:31.906Z,18.60
2022-07-25T23:41:58.686Z,18.58
2022-07-25T23:44:25.845Z,17.45
2022-07-25T23:46:54.060Z,18.65
2022-07-25T23:49:20.899Z,15.52
2022-07-25T23:51:47.321Z,17.80
2022-07-25T23:54:13.788Z,15.55
2022-07-25T23:56:40.415Z,18.10
2022-07-25T23:59:07.052Z,18.55
